createdAt,value
2023-02-06T00:00:23.597Z,-1.83
2023-02-06T00:01:56.758Z,-1.86
2023-02-06T00:03:29.132Z,-1.87
2023-02-06T00:05:02.436Z,-1.89
2023-02-06T00:06:35.116Z,-1.89
2023-02-06T00:08:08.291Z,-1.93
2023-02-06T00:09:41.460Z,-2.01
2023-02-06T00:11:16.962Z,-2.05
2023-02-06T00:12:50.115Z,-2.10
2023-02-06T00:14:23.269Z,-2.15
2023-02-06T00:15:56.972Z,-2.19
2023-02-06T00:17:30.258Z,-2.20
2023-02-06T00:19:04.017Z,-2.22
2023-02-06T00:20:37.763Z,-2.29
2023-02-06T00:22:13.619Z,-2.37
2023-02-06T00:23:46.577Z,-2.43
2023-02-06T00:25:19.993Z,-2.47
2023-02-06T00:26:53.168Z,-2.50
2023-02-06T00:28:26.418Z,-2.52
2023-02-06T00:29:59.800Z,-2.51
2023-02-06T00:31:34.550Z,-2.50
2023-02-06T00:33:08.003Z,-2.56
2023-02-06T00:34:41.286Z,-2.55
2023-02-06T00:36:14.460Z,-2.56
2023-02-06T00:37:47.679Z,-2.57
2023-02-06T00:39:21.071Z,-2.57
2023-02-06T00:40:54.418Z,-2.58
2023-02-06T00:42:27.726Z,-2.60
2023-02-06T00:44:00.957Z,-2.64
2023-02-06T00:45:33.370Z,-2.68
2023-02-06T00:47:09.277Z,-2.69
2023-02-06T00:48:43.207Z,-2.69
2023-02-06T00:50:16.921Z,-2.73
2023-02-06T00:51:50.125Z,-2.73
2023-02-06T00:53:22.603Z,-2.74
2023-02-06T00:54:56.166Z,-2.78
2023-02-06T00:56:29.501Z,-2.80
2023-02-06T00:58:01.625Z,-2.83
2023-02-06T00:59:34.827Z,-2.84
2023-02-06T01:01:08.165Z,-2.84
2023-02-06T01:02:41.978Z,-2.88
2023-02-06T01:04:15.168Z,-2.94
2023-02-06T01:05:48.562Z,-2.99
2023-02-06T01:07:22.139Z,-3.09
2023-02-06T01:08:55.471Z,-3.21
2023-02-06T01:10:28.600Z,-3.24
2023-02-06T01:12:00.913Z,-3.27
2023-02-06T01:13:34.191Z,-3.28
2023-02-06T01:15:11.213Z,-3.30
2023-02-06T01:16:44.534Z,-3.33
2023-02-06T01:18:19.116Z,-3.30
2023-02-06T01:19:51.415Z,-3.37
2023-02-06T01:21:25.955Z,-3.42
2023-02-06T01:22:59.567Z,-3.51
2023-02-06T01:24:32.958Z,-3.61
2023-02-06T01:26:07.688Z,-3.76
2023-02-06T01:27:41.685Z,-3.78
2023-02-06T01:29:14.849Z,-3.78
2023-02-06T01:30:48.090Z,-3.78
2023-02-06T01:32:21.387Z,-3.81
2023-02-06T01:33:57.823Z,-3.85
2023-02-06T01:35:31.140Z,-3.86
2023-02-06T01:37:04.628Z,-3.93
2023-02-06T01:38:36.893Z,-4.00
2023-02-06T01:40:14.962Z,-4.17
2023-02-06T01:41:48.147Z,-4.14
2023-02-06T01:43:21.973Z,-4.12
2023-02-06T01:45:33.775Z,-4.08
2023-02-06T01:47:06.987Z,-4.08
2023-02-06T01:48:43.841Z,-4.04
2023-02-06T01:50:18.572Z,-4.05
2023-02-06T01:51:55.406Z,-4.06
2023-02-06T01:53:28.681Z,-4.07
2023-02-06T01:55:05.433Z,-4.08
2023-02-06T01:56:42.882Z,-4.11
2023-02-06T01:58:19.450Z,-4.17
2023-02-06T01:59:58.373Z,-4.17
2023-02-06T02:01:31.722Z,-4.19
2023-02-06T02:03:05.207Z,-4.20
2023-02-06T02:04:38.628Z,-4.21
2023-02-06T02:06:15.340Z,-4.20
2023-02-06T02:07:52.622Z,-4.28
2023-02-06T02:09:26.541Z,-4.29
2023-02-06T02:11:00.777Z,-4.36
2023-02-06T02:12:33.860Z,-4.33
2023-02-06T02:14:12.204Z,-4.35
2023-02-06T02:15:58.130Z,-4.35
2023-02-06T02:17:40.248Z,-4.30
2023-02-06T02:19:45.647Z,-4.29
2023-02-06T02:22:03.122Z,-4.27
2023-02-06T02:23:47.083Z,-4.18
2023-02-06T02:26:15.027Z,-4.21
2023-02-06T02:28:19.735Z,-4.22
2023-02-06T02:30:40.648Z,-4.23
2023-02-06T02:32:58.842Z,-4.24
2023-02-06T02:35:00.520Z,-4.17
2023-02-06T02:36:38.907Z,-4.11
2023-02-06T02:38:26.110Z,-4.05
2023-02-06T02:40:07.079Z,-4.02
2023-02-06T02:41:50.208Z,-4.00
2023-02-06T02:43:35.374Z,-4.00
2023-02-06T02:45:14.880Z,-4.00
2023-02-06T02:46:53.761Z,-4.00
2023-02-06T02:48:31.689Z,-3.96
2023-02-06T02:50:07.524Z,-3.99
2023-02-06T02:51:42.477Z,-3.99
2023-02-06T02:53:15.137Z,-4.00
2023-02-06T02:54:48.366Z,-4.14
2023-02-06T02:56:24.187Z,-4.26
2023-02-06T02:58:05.181Z,-4.51
2023-02-06T02:59:44.770Z,-4.58
2023-02-06T03:01:22.612Z,-4.55
2023-02-06T03:02:59.034Z,-4.50
2023-02-06T03:04:38.664Z,-4.51
2023-02-06T03:06:35.466Z,-4.46
2023-02-06T03:08:18.156Z,-4.42
2023-02-06T03:10:00.584Z,-4.43
2023-02-06T03:11:33.588Z,-4.44
2023-02-06T03:13:16.426Z,-4.42
2023-02-06T03:14:54.999Z,-4.39
2023-02-06T03:16:34.465Z,-4.40
2023-02-06T03:18:13.832Z,-4.35
2023-02-06T03:19:50.606Z,-4.34
2023-02-06T03:21:28.192Z,-4.32
2023-02-06T03:23:04.690Z,-4.30
2023-02-06T03:24:40.690Z,-4.31
2023-02-06T03:26:16.879Z,-4.31
2023-02-06T03:27:52.069Z,-4.28
2023-02-06T03:29:27.124Z,-4.24
2023-02-06T03:31:04.293Z,-4.25
2023-02-06T03:32:43.558Z,-4.27
2023-02-06T03:34:21.932Z,-4.25
2023-02-06T03:35:57.791Z,-4.20
2023-02-06T03:37:32.597Z,-4.17
2023-02-06T03:39:05.978Z,-4.11
2023-02-06T03:40:42.215Z,-4.03
2023-02-06T03:42:17.484Z,-4.02
2023-02-06T03:43:53.537Z,-4.07
2023-02-06T03:45:30.425Z,-4.05
2023-02-06T03:47:04.358Z,-4.01
2023-02-06T03:48:41.202Z,-3.94
2023-02-06T03:50:15.594Z,-3.95
2023-02-06T03:51:53.297Z,-3.85
2023-02-06T03:53:27.545Z,-3.79
2023-02-06T03:55:03.509Z,-3.72
2023-02-06T03:56:41.259Z,-3.66
2023-02-06T03:58:15.615Z,-3.61
2023-02-06T03:59:49.290Z,-3.66
2023-02-06T04:01:23.354Z,-3.66
2023-02-06T04:02:58.515Z,-3.62
2023-02-06T04:04:35.139Z,-3.56
2023-02-06T04:06:08.655Z,-3.47
2023-02-06T04:07:41.824Z,-3.42
2023-02-06T04:09:16.861Z,-3.35
2023-02-06T04:10:50.038Z,-3.28
2023-02-06T04:12:24.665Z,-3.28
2023-02-06T04:13:57.851Z,-3.20
2023-02-06T04:15:31.228Z,-3.13
2023-02-06T04:17:04.711Z,-3.08
2023-02-06T04:18:37.932Z,-3.05
2023-02-06T04:20:11.922Z,-3.13
2023-02-06T04:21:45.302Z,-3.09
2023-02-06T04:23:18.830Z,-3.07
2023-02-06T04:24:52.736Z,-3.04
2023-02-06T04:26:25.843Z,-3.03
2023-02-06T04:27:59.182Z,-3.02
2023-02-06T04:29:32.387Z,-3.07
2023-02-06T04:31:06.541Z,-3.01
2023-02-06T04:32:38.670Z,-3.00
2023-02-06T04:34:12.025Z,-2.94
2023-02-06T04:35:45.295Z,-3.08
2023-02-06T04:37:18.630Z,-3.05
2023-02-06T04:38:52.016Z,-3.04
2023-02-06T04:40:26.851Z,-2.97
2023-02-06T04:41:58.995Z,-2.98
2023-02-06T04:43:32.656Z,-3.00
2023-02-06T04:45:05.356Z,-2.91
2023-02-06T04:46:38.890Z,-2.85
2023-02-06T04:48:12.256Z,-2.82
2023-02-06T04:49:45.545Z,-2.76
2023-02-06T04:51:17.717Z,-2.77
2023-02-06T04:52:50.954Z,-2.74
2023-02-06T04:54:24.782Z,-2.74
2023-02-06T04:56:03.735Z,-2.70
2023-02-06T04:57:36.806Z,-2.67
2023-02-06T04:59:10.284Z,-2.63
2023-02-06T05:00:43.476Z,-2.60
2023-02-06T05:02:16.749Z,-2.66
2023-02-06T05:03:50.270Z,-2.63
2023-02-06T05:05:23.684Z,-2.70
2023-02-06T05:06:56.818Z,-2.78
2023-02-06T05:08:30.549Z,-2.83
2023-02-06T05:10:03.935Z,-2.85
2023-02-06T05:11:38.538Z,-2.83
2023-02-06T05:13:11.263Z,-2.87
2023-02-06T05:14:44.719Z,-2.82
2023-02-06T05:16:18.789Z,-2.78
2023-02-06T05:17:52.282Z,-2.72
2023-02-06T05:19:25.460Z,-2.75
2023-02-06T05:20:58.944Z,-2.72
2023-02-06T05:22:32.142Z,-2.67
2023-02-06T05:24:05.703Z,-2.62
2023-02-06T05:25:41.343Z,-2.66
2023-02-06T05:27:17.028Z,-2.61
2023-02-06T05:28:50.130Z,-2.60
2023-02-06T05:30:23.873Z,-2.56
2023-02-06T05:31:57.152Z,-2.54
2023-02-06T05:33:30.762Z,-2.51
2023-02-06T05:35:03.926Z,-2.52
2023-02-06T05:36:36.833Z,-2.45
2023-02-06T05:38:10.297Z,-2.49
2023-02-06T05:39:43.664Z,-2.49
2023-02-06T05:41:17.047Z,-2.56
2023-02-06T05:42:52.021Z,-2.68
2023-02-06T05:44:25.164Z,-2.81
2023-02-06T05:45:58.527Z,-2.75
2023-02-06T05:47:31.605Z,-2.79
2023-02-06T05:49:04.884Z,-2.77
2023-02-06T05:50:38.030Z,-2.80
2023-02-06T05:52:21.044Z,-2.78
2023-02-06T05:53:53.124Z,-2.82
2023-02-06T05:55:26.457Z,-2.83
2023-02-06T05:56:59.634Z,-2.78
2023-02-06T05:58:34.539Z,-2.73
2023-02-06T06:00:08.747Z,-2.71
2023-02-06T06:01:44.817Z,-2.66
2023-02-06T06:03:18.024Z,-2.61
2023-02-06T06:04:51.508Z,-2.63
2023-02-06T06:06:24.599Z,-2.69
2023-02-06T06:07:57.838Z,-2.65
2023-02-06T06:09:30.987Z,-2.76
2023-02-06T06:11:04.585Z,-2.70
2023-02-06T06:12:38.184Z,-2.70
2023-02-06T06:14:13.753Z,-2.63
2023-02-06T06:15:46.945Z,-2.65
2023-02-06T06:17:20.464Z,-2.62
2023-02-06T06:18:53.600Z,-2.56
2023-02-06T06:20:27.219Z,-2.55
2023-02-06T06:22:00.419Z,-2.57
2023-02-06T06:23:34.110Z,-2.58
2023-02-06T06:25:07.961Z,-2.54
2023-02-06T06:26:41.529Z,-2.55
2023-02-06T06:28:14.909Z,-2.52
2023-02-06T06:29:49.766Z,-2.47
2023-02-06T06:31:22.980Z,-2.44
2023-02-06T06:32:56.431Z,-2.40
2023-02-06T06:34:29.671Z,-2.40
2023-02-06T06:36:03.050Z,-2.44
2023-02-06T06:37:35.244Z,-2.45
2023-02-06T06:39:08.679Z,-2.46
2023-02-06T06:40:43.079Z,-2.49
2023-02-06T06:42:16.324Z,-2.41
2023-02-06T06:43:51.473Z,-2.39
2023-02-06T06:45:26.375Z,-2.35
2023-02-06T06:46:59.557Z,-2.33
2023-02-06T06:48:34.351Z,-2.30
2023-02-06T06:50:07.097Z,-2.25
2023-02-06T06:51:40.503Z,-2.20
2023-02-06T06:53:13.678Z,-2.13
2023-02-06T06:54:46.915Z,-2.06
2023-02-06T06:56:20.037Z,-2.01
2023-02-06T06:57:53.346Z,-1.92
2023-02-06T06:59:26.627Z,-1.86
2023-02-06T07:01:01.782Z,-1.79
2023-02-06T07:02:34.877Z,-1.73
2023-02-06T07:04:08.272Z,-1.74
2023-02-06T07:05:41.490Z,-1.71
2023-02-06T07:07:15.003Z,-1.68
2023-02-06T07:08:48.097Z,-1.61
2023-02-06T07:10:21.406Z,-1.60
2023-02-06T07:11:54.615Z,-1.53
2023-02-06T07:13:28.009Z,-1.46
2023-02-06T07:15:01.158Z,-1.40
2023-02-06T07:16:35.876Z,-1.34
2023-02-06T07:18:11.568Z,-1.30
2023-02-06T07:19:48.153Z,-1.35
2023-02-06T07:21:21.382Z,-1.28
2023-02-06T07:22:54.934Z,-1.27
2023-02-06T07:24:28.415Z,-1.28
2023-02-06T07:26:02.589Z,-1.20
2023-02-06T07:27:35.760Z,-1.13
2023-02-06T07:29:09.145Z,-1.07
2023-02-06T07:30:42.331Z,-0.99
2023-02-06T07:32:17.062Z,-0.86
2023-02-06T07:33:50.385Z,-0.73
2023-02-06T07:35:23.682Z,-0.67
2023-02-06T07:36:56.906Z,-0.64
2023-02-06T07:38:30.151Z,-0.60
2023-02-06T07:40:03.409Z,-0.59
2023-02-06T07:41:36.801Z,-0.60
2023-02-06T07:43:10.222Z,-0.58
2023-02-06T07:44:43.858Z,-0.50
2023-02-06T07:46:17.136Z,-0.40
2023-02-06T07:47:52.114Z,-0.35
2023-02-06T07:49:25.345Z,-0.31
2023-02-06T07:50:59.187Z,-0.32
2023-02-06T07:52:32.372Z,-0.29
2023-02-06T07:54:06.168Z,-0.24
2023-02-06T07:55:39.424Z,-0.13
2023-02-06T07:57:12.961Z,0.01
2023-02-06T07:58:47.369Z,0.11
2023-02-06T08:00:21.051Z,0.23
2023-02-06T08:01:54.600Z,0.30
2023-02-06T08:03:29.308Z,0.37
2023-02-06T08:05:02.404Z,0.43
2023-02-06T08:06:35.878Z,0.44
2023-02-06T08:08:09.840Z,0.41
2023-02-06T08:09:43.303Z,0.37
2023-02-06T08:11:19.641Z,0.38
2023-02-06T08:12:53.177Z,0.38
2023-02-06T08:14:26.962Z,0.43
2023-02-06T08:16:00.225Z,0.55
2023-02-06T08:17:33.361Z,0.65
2023-02-06T08:19:10.965Z,0.80
2023-02-06T08:20:44.124Z,0.92
2023-02-06T08:22:21.435Z,1.03
2023-02-06T08:23:57.826Z,1.22
2023-02-06T08:25:31.280Z,1.32
2023-02-06T08:27:04.594Z,1.42
2023-02-06T08:28:38.688Z,1.45
2023-02-06T08:30:13.874Z,1.36
2023-02-06T08:31:47.505Z,1.38
2023-02-06T08:33:20.634Z,1.26
2023-02-06T08:34:55.148Z,1.20
2023-02-06T08:36:29.888Z,1.13
2023-02-06T08:38:03.386Z,1.04
2023-02-06T08:39:36.516Z,0.92
2023-02-06T08:41:18.394Z,0.89
2023-02-06T08:42:52.265Z,0.85
2023-02-06T08:44:25.696Z,0.86
2023-02-06T08:45:59.754Z,0.87
2023-02-06T08:47:33.242Z,0.92
2023-02-06T08:49:09.216Z,0.95
2023-02-06T08:50:44.948Z,1.01
2023-02-06T08:52:18.262Z,1.05
2023-02-06T08:53:51.445Z,1.16
2023-02-06T08:55:37.035Z,1.26
2023-02-06T08:57:12.677Z,1.47
2023-02-06T08:58:45.787Z,1.63
2023-02-06T09:00:19.980Z,1.75
2023-02-06T09:01:53.269Z,1.80
2023-02-06T09:03:27.221Z,1.90
2023-02-06T09:05:00.412Z,2.07
2023-02-06T09:06:36.062Z,2.16
2023-02-06T09:08:09.181Z,2.18
2023-02-06T09:09:42.654Z,2.07
2023-02-06T09:11:17.897Z,2.13
2023-02-06T09:12:54.951Z,2.22
2023-02-06T09:14:29.439Z,2.27
2023-02-06T09:16:03.076Z,2.24
2023-02-06T09:17:36.304Z,2.27
2023-02-06T09:19:11.611Z,2.14
2023-02-06T09:20:49.725Z,1.87
2023-02-06T09:22:24.482Z,1.68
2023-02-06T09:24:00.031Z,1.53
2023-02-06T09:25:34.512Z,1.43
2023-02-06T09:27:07.758Z,1.22
2023-02-06T09:28:41.412Z,1.17
2023-02-06T09:30:15.457Z,1.13
2023-02-06T09:31:48.887Z,1.23
2023-02-06T09:33:22.388Z,1.07
2023-02-06T09:34:55.649Z,0.97
2023-02-06T09:36:30.429Z,1.01
2023-02-06T09:38:05.085Z,0.80
2023-02-06T09:39:38.285Z,0.69
2023-02-06T09:41:17.958Z,0.77
2023-02-06T09:42:53.594Z,1.09
2023-02-06T09:44:33.898Z,1.09
2023-02-06T09:46:14.859Z,1.07
2023-02-06T09:47:51.593Z,1.06
2023-02-06T09:49:31.337Z,0.93
2023-02-06T09:51:14.407Z,0.89
2023-02-06T09:52:57.262Z,0.96
2023-02-06T09:54:43.234Z,0.93
2023-02-06T09:56:23.023Z,0.85
2023-02-06T09:58:03.230Z,0.94
2023-02-06T09:59:40.954Z,0.96
2023-02-06T10:01:20.609Z,0.85
2023-02-06T10:03:34.251Z,0.79
2023-02-06T10:05:16.537Z,0.63
2023-02-06T10:06:57.541Z,0.63
2023-02-06T10:08:38.596Z,0.42
2023-02-06T10:10:19.181Z,0.19
2023-02-06T10:11:57.550Z,0.29
2023-02-06T10:13:35.745Z,0.38
2023-02-06T10:15:16.378Z,0.38
2023-02-06T10:16:54.801Z,0.50
2023-02-06T10:18:33.288Z,0.57
2023-02-06T10:20:12.194Z,0.53
2023-02-06T10:21:51.792Z,0.35
2023-02-06T10:23:34.033Z,0.29
2023-02-06T10:25:21.733Z,0.43
2023-02-06T10:26:55.647Z,0.53
2023-02-06T10:28:30.868Z,0.49
2023-02-06T10:30:04.460Z,0.43
2023-02-06T10:31:51.877Z,0.33
2023-02-06T10:33:33.231Z,0.37
2023-02-06T10:35:33.567Z,0.40
2023-02-06T10:37:21.120Z,0.65
2023-02-06T10:39:18.585Z,0.62
2023-02-06T10:40:59.556Z,0.62
2023-02-06T10:42:43.859Z,0.53
2023-02-06T10:44:24.416Z,0.58
2023-02-06T10:46:08.161Z,0.67
2023-02-06T10:47:46.771Z,0.79
2023-02-06T10:49:28.057Z,0.93
2023-02-06T10:51:11.351Z,1.09
2023-02-06T10:52:45.300Z,0.98
2023-02-06T10:54:22.277Z,0.89
2023-02-06T10:56:00.877Z,0.85
2023-02-06T10:57:35.695Z,0.62
2023-02-06T10:59:15.975Z,0.65
2023-02-06T11:00:51.823Z,0.60
2023-02-06T11:02:28.569Z,0.66
2023-02-06T11:04:15.137Z,0.57
2023-02-06T11:05:50.115Z,0.61
2023-02-06T11:07:28.187Z,0.64
2023-02-06T11:09:01.596Z,0.65
2023-02-06T11:10:35.372Z,0.80
2023-02-06T11:12:21.378Z,0.92
2023-02-06T11:13:58.433Z,0.86
2023-02-06T11:15:37.654Z,0.84
2023-02-06T11:17:15.373Z,0.83
2023-02-06T11:18:50.692Z,0.85
2023-02-06T11:20:28.198Z,0.99
2023-02-06T11:22:12.123Z,1.17
2023-02-06T11:23:45.428Z,1.25
2023-02-06T11:25:27.389Z,1.33
2023-02-06T11:27:13.277Z,1.39
2023-02-06T11:28:54.949Z,1.36
2023-02-06T11:30:34.738Z,1.13
2023-02-06T11:32:09.983Z,1.17
2023-02-06T11:33:49.921Z,1.41
2023-02-06T11:35:27.482Z,1.62
2023-02-06T11:37:02.439Z,1.67
2023-02-06T11:38:35.802Z,1.80
2023-02-06T11:40:23.106Z,1.81
2023-02-06T11:42:02.037Z,1.83
2023-02-06T11:43:49.528Z,1.85
2023-02-06T11:45:30.058Z,1.93
2023-02-06T11:47:22.325Z,1.72
2023-02-06T11:49:08.564Z,1.80
2023-02-06T11:50:41.938Z,1.81
2023-02-06T11:52:29.570Z,1.66
2023-02-06T11:54:04.366Z,1.69
2023-02-06T11:55:40.203Z,1.79
2023-02-06T11:57:22.662Z,1.91
2023-02-06T11:59:07.370Z,2.02
2023-02-06T12:00:43.548Z,2.02
2023-02-06T12:02:28.249Z,2.02
2023-02-06T12:04:01.575Z,2.17
2023-02-06T12:05:41.891Z,2.08
2023-02-06T12:07:28.905Z,1.97
2023-02-06T12:09:05.942Z,1.95
2023-02-06T12:10:52.388Z,1.82
2023-02-06T12:12:30.954Z,1.78
2023-02-06T12:14:09.186Z,1.69
2023-02-06T12:15:47.809Z,1.40
2023-02-06T12:17:32.074Z,1.64
2023-02-06T12:19:12.543Z,1.80
2023-02-06T12:20:51.542Z,1.57
2023-02-06T12:22:26.846Z,1.28
2023-02-06T12:24:03.536Z,1.37
2023-02-06T12:25:40.131Z,1.21
2023-02-06T12:27:18.622Z,1.09
2023-02-06T12:28:57.794Z,1.09
2023-02-06T12:30:36.288Z,1.15
2023-02-06T12:32:18.392Z,1.12
2023-02-06T12:33:55.129Z,1.05
2023-02-06T12:35:36.552Z,1.03
2023-02-06T12:37:16.567Z,0.94
2023-02-06T12:38:55.318Z,1.04
2023-02-06T12:40:40.420Z,1.14
2023-02-06T12:42:36.267Z,1.21
2023-02-06T12:44:21.027Z,1.24
2023-02-06T12:45:59.960Z,1.15
2023-02-06T12:47:42.576Z,0.94
2023-02-06T12:49:22.013Z,0.47
2023-02-06T12:51:02.094Z,0.45
2023-02-06T12:52:41.299Z,0.41
2023-02-06T12:54:18.874Z,0.49
2023-02-06T12:56:00.350Z,0.42
2023-02-06T12:57:34.783Z,0.32
2023-02-06T12:59:31.057Z,0.41
2023-02-06T13:01:29.235Z,0.49
2023-02-06T13:03:28.689Z,0.45
2023-02-06T13:05:05.946Z,0.45
2023-02-06T13:06:48.310Z,0.43
2023-02-06T13:08:27.745Z,0.46
2023-02-06T13:10:05.025Z,0.48
2023-02-06T13:11:42.630Z,0.58
2023-02-06T13:13:38.089Z,0.69
2023-02-06T13:15:23.762Z,0.77
2023-02-06T13:17:00.176Z,0.79
2023-02-06T13:18:55.482Z,0.86
2023-02-06T13:20:31.857Z,0.90
2023-02-06T13:22:36.476Z,0.91
2023-02-06T13:24:20.661Z,1.04
2023-02-06T13:25:54.250Z,1.06
2023-02-06T13:27:39.390Z,1.02
2023-02-06T13:29:25.565Z,0.94
2023-02-06T13:31:02.556Z,0.93
2023-02-06T13:32:45.431Z,0.95
2023-02-06T13:34:20.392Z,0.88
2023-02-06T13:35:59.112Z,0.79
2023-02-06T13:37:35.541Z,0.77
2023-02-06T13:39:22.726Z,0.77
2023-02-06T13:41:28.350Z,0.78
2023-02-06T13:43:05.310Z,0.73
2023-02-06T13:44:40.418Z,0.72
2023-02-06T13:46:17.206Z,0.75
2023-02-06T13:48:30.584Z,0.69
2023-02-06T13:50:32.631Z,0.69
2023-02-06T13:52:15.443Z,0.71
2023-02-06T13:54:13.774Z,0.67
2023-02-06T13:56:02.094Z,0.61
2023-02-06T13:58:04.063Z,0.54
2023-02-06T13:59:39.797Z,0.55
2023-02-06T14:01:20.154Z,0.59
2023-02-06T14:02:57.158Z,0.53
2023-02-06T14:04:33.424Z,0.60
2023-02-06T14:06:22.291Z,0.60
2023-02-06T14:08:05.706Z,0.59
2023-02-06T14:10:05.294Z,0.55
2023-02-06T14:12:12.396Z,0.55
2023-02-06T14:14:01.974Z,0.58
2023-02-06T14:15:48.482Z,0.53
2023-02-06T14:17:38.845Z,0.56
2023-02-06T14:19:22.311Z,0.55
2023-02-06T14:21:05.035Z,0.48
2023-02-06T14:22:48.333Z,0.50
2023-02-06T14:24:42.468Z,0.52
2023-02-06T14:26:27.289Z,0.53
2023-02-06T14:28:16.046Z,0.55
2023-02-06T14:30:00.817Z,0.52
2023-02-06T14:31:49.358Z,0.49
2023-02-06T14:33:42.572Z,0.51
2023-02-06T14:35:29.434Z,0.55
2023-02-06T14:37:21.906Z,0.57
2023-02-06T14:39:26.365Z,0.55
2023-02-06T14:41:01.990Z,0.52
2023-02-06T14:42:40.135Z,0.56
2023-02-06T14:44:21.414Z,0.56
2023-02-06T14:46:06.731Z,0.53
2023-02-06T14:47:43.561Z,0.51
2023-02-06T14:49:20.054Z,0.47
2023-02-06T14:50:56.870Z,0.41
2023-02-06T14:52:33.699Z,0.38
2023-02-06T14:54:29.375Z,0.35
2023-02-06T14:56:18.232Z,0.27
2023-02-06T14:57:51.855Z,0.31
2023-02-06T14:59:25.291Z,0.27
2023-02-06T15:01:14.857Z,0.27
2023-02-06T15:02:48.355Z,0.20
2023-02-06T15:04:23.367Z,0.12
2023-02-06T15:06:02.037Z,0.15
2023-02-06T15:07:39.998Z,0.04
2023-02-06T15:09:29.810Z,-0.06
2023-02-06T15:11:05.442Z,-0.04
2023-02-06T15:12:39.511Z,-0.08
2023-02-06T15:14:22.705Z,-0.06
2023-02-06T15:15:59.720Z,-0.07
2023-02-06T15:17:34.498Z,-0.13
2023-02-06T15:19:12.669Z,-0.13
2023-02-06T15:20:47.828Z,-0.16
2023-02-06T15:22:25.050Z,-0.11
2023-02-06T15:24:08.139Z,-0.13
2023-02-06T15:25:58.148Z,-0.23
2023-02-06T15:27:33.371Z,-0.32
2023-02-06T15:29:27.741Z,-0.31
2023-02-06T15:31:02.488Z,-0.30
2023-02-06T15:32:39.086Z,-0.27
2023-02-06T15:34:18.237Z,-0.29
2023-02-06T15:35:54.316Z,-0.30
2023-02-06T15:37:30.314Z,-0.28
2023-02-06T15:39:07.814Z,-0.31
2023-02-06T15:40:46.302Z,-0.47
2023-02-06T15:42:21.488Z,-0.40
2023-02-06T15:44:00.104Z,-0.35
2023-02-06T15:45:36.054Z,-0.36
2023-02-06T15:47:14.579Z,-0.36
2023-02-06T15:48:52.401Z,-0.34
2023-02-06T15:50:28.759Z,-0.34
2023-02-06T15:52:06.079Z,-0.29
2023-02-06T15:53:41.256Z,-0.34
2023-02-06T15:55:26.428Z,-0.36
2023-02-06T15:57:05.781Z,-0.35
2023-02-06T15:58:39.190Z,-0.40
2023-02-06T16:00:23.592Z,-0.44
2023-02-06T16:01:59.566Z,-0.43
2023-02-06T16:03:33.450Z,-0.42
2023-02-06T16:05:16.194Z,-0.49
2023-02-06T16:07:02.400Z,-0.50
2023-02-06T16:08:38.268Z,-0.50
2023-02-06T16:10:21.819Z,-0.54
2023-02-06T16:11:57.073Z,-0.53
2023-02-06T16:13:33.331Z,-0.51
2023-02-06T16:15:32.920Z,-0.55
2023-02-06T16:17:23.550Z,-0.54
2023-02-06T16:18:58.626Z,-0.50
2023-02-06T16:20:37.230Z,-0.53
2023-02-06T16:22:23.689Z,-0.58
2023-02-06T16:24:16.502Z,-0.53
2023-02-06T16:26:00.440Z,-0.50
2023-02-06T16:27:34.801Z,-0.50
2023-02-06T16:29:22.117Z,-0.44
2023-02-06T16:30:56.367Z,-0.47
2023-02-06T16:32:31.555Z,-0.47
2023-02-06T16:34:21.264Z,-0.51
2023-02-06T16:35:54.723Z,-0.52
2023-02-06T16:37:30.226Z,-0.45
2023-02-06T16:39:04.860Z,-0.44
2023-02-06T16:40:38.627Z,-0.46
2023-02-06T16:42:17.676Z,-0.40
2023-02-06T16:43:50.850Z,-0.43
2023-02-06T16:45:27.882Z,-0.46
2023-02-06T16:47:01.142Z,-0.46
2023-02-06T16:48:35.328Z,-0.51
2023-02-06T16:50:10.457Z,-0.43
2023-02-06T16:51:46.020Z,-0.44
2023-02-06T16:53:22.748Z,-0.47
2023-02-06T16:54:58.997Z,-0.46
2023-02-06T16:56:32.685Z,-0.42
2023-02-06T16:58:06.246Z,-0.42
2023-02-06T16:59:39.415Z,-0.45
2023-02-06T17:01:22.179Z,-0.43
2023-02-06T17:02:56.365Z,-0.44
2023-02-06T17:04:29.658Z,-0.42
2023-02-06T17:06:04.185Z,-0.42
2023-02-06T17:07:37.454Z,-0.45
2023-02-06T17:09:11.121Z,-0.47
2023-02-06T17:10:44.895Z,-0.50
2023-02-06T17:12:20.525Z,-0.51
2023-02-06T17:13:54.002Z,-0.57
2023-02-06T17:15:27.258Z,-0.55
2023-02-06T17:17:05.153Z,-0.57
2023-02-06T17:18:38.447Z,-0.60
2023-02-06T17:20:25.602Z,-0.68
2023-02-06T17:21:58.879Z,-0.65
2023-02-06T17:23:32.611Z,-0.68
2023-02-06T17:25:06.755Z,-0.72
2023-02-06T17:26:39.965Z,-0.62
2023-02-06T17:28:15.324Z,-0.66
2023-02-06T17:29:49.593Z,-0.64
2023-02-06T17:31:23.202Z,-0.63
2023-02-06T17:32:57.973Z,-0.65
2023-02-06T17:34:32.927Z,-0.63
2023-02-06T17:36:08.169Z,-0.65
2023-02-06T17:37:41.709Z,-0.68
2023-02-06T17:39:14.897Z,-0.58
2023-02-06T17:40:48.063Z,-0.59
2023-02-06T17:42:23.355Z,-0.59
2023-02-06T17:43:56.434Z,-0.63
2023-02-06T17:45:29.651Z,-0.65
2023-02-06T17:47:02.876Z,-0.63
2023-02-06T17:48:42.775Z,-0.60
2023-02-06T17:50:18.631Z,-0.65
2023-02-06T17:51:52.106Z,-0.68
2023-02-06T17:53:25.206Z,-0.68
2023-02-06T17:54:58.573Z,-0.69
2023-02-06T17:56:31.722Z,-0.72
2023-02-06T17:58:05.573Z,-0.71
2023-02-06T17:59:38.701Z,-0.71
2023-02-06T18:01:13.437Z,-0.72
2023-02-06T18:02:46.856Z,-0.69
2023-02-06T18:04:21.686Z,-0.74
2023-02-06T18:05:59.151Z,-0.74
2023-02-06T18:07:32.535Z,-0.69
2023-02-06T18:09:05.862Z,-0.67
2023-02-06T18:10:40.499Z,-0.65
2023-02-06T18:12:13.590Z,-0.75
2023-02-06T18:13:49.236Z,-0.79
2023-02-06T18:15:22.603Z,-0.76
2023-02-06T18:16:55.910Z,-0.74
2023-02-06T18:18:30.590Z,-0.70
2023-02-06T18:20:06.448Z,-0.72
2023-02-06T18:21:39.694Z,-0.67
2023-02-06T18:23:13.313Z,-0.71
2023-02-06T18:24:47.268Z,-0.69
2023-02-06T18:26:21.476Z,-0.64
2023-02-06T18:27:55.107Z,-0.65
2023-02-06T18:29:37.286Z,-0.67
2023-02-06T18:31:24.283Z,-0.65
2023-02-06T18:32:57.505Z,-0.67
2023-02-06T18:34:30.968Z,-0.78
2023-02-06T18:36:08.261Z,-0.79
2023-02-06T18:37:42.004Z,-0.80
2023-02-06T18:39:15.298Z,-0.81
2023-02-06T18:40:49.715Z,-0.84
2023-02-06T18:42:43.998Z,-0.87
2023-02-06T18:44:17.355Z,-0.80
2023-02-06T18:45:50.684Z,-0.84
2023-02-06T18:47:23.809Z,-0.88
2023-02-06T18:48:57.317Z,-0.85
2023-02-06T18:50:30.546Z,-0.82
2023-02-06T18:52:06.477Z,-0.82
2023-02-06T18:53:39.626Z,-0.80
2023-02-06T18:55:12.892Z,-0.79
2023-02-06T18:56:46.093Z,-0.84
2023-02-06T18:58:19.727Z,-0.78
2023-02-06T18:59:52.844Z,-0.78
2023-02-06T19:01:27.250Z,-0.78
2023-02-06T19:03:00.550Z,-0.79
2023-02-06T19:04:36.218Z,-0.84
2023-02-06T19:06:14.731Z,-0.82
2023-02-06T19:07:56.780Z,-0.84
2023-02-06T19:09:30.011Z,-0.82
2023-02-06T19:11:03.451Z,-0.78
2023-02-06T19:12:36.659Z,-0.74
2023-02-06T19:14:12.511Z,-0.71
2023-02-06T19:15:45.736Z,-0.73
2023-02-06T19:17:19.086Z,-0.77
2023-02-06T19:18:52.200Z,-0.79
2023-02-06T19:20:25.612Z,-0.77
2023-02-06T19:21:58.788Z,-0.79
2023-02-06T19:23:34.896Z,-0.79
2023-02-06T19:25:13.997Z,-0.75
2023-02-06T19:26:48.034Z,-0.76
2023-02-06T19:28:21.289Z,-0.74
2023-02-06T19:29:54.676Z,-0.79
2023-02-06T19:31:28.052Z,-0.77
2023-02-06T19:33:01.597Z,-0.79
2023-02-06T19:34:36.375Z,-0.81
2023-02-06T19:36:11.874Z,-0.80
2023-02-06T19:37:45.014Z,-0.85
2023-02-06T19:39:19.912Z,-0.83
2023-02-06T19:40:53.990Z,-0.79
2023-02-06T19:42:27.652Z,-0.77
2023-02-06T19:44:05.033Z,-0.77
2023-02-06T19:45:38.447Z,-0.79
2023-02-06T19:47:12.043Z,-0.79
2023-02-06T19:48:46.724Z,-0.76
2023-02-06T19:50:20.086Z,-0.75
2023-02-06T19:51:54.057Z,-0.70
2023-02-06T19:53:27.311Z,-0.69
2023-02-06T19:55:02.204Z,-0.72
2023-02-06T19:56:39.572Z,-0.72
2023-02-06T19:58:12.959Z,-0.70
2023-02-06T19:59:46.366Z,-0.70
2023-02-06T20:01:19.670Z,-0.71
2023-02-06T20:02:53.074Z,-0.73
2023-02-06T20:04:30.790Z,-0.70
2023-02-06T20:06:04.629Z,-0.70
2023-02-06T20:07:37.919Z,-0.74
2023-02-06T20:09:12.753Z,-0.75
2023-02-06T20:10:47.706Z,-0.76
2023-02-06T20:12:24.057Z,-0.72
2023-02-06T20:13:58.412Z,-0.71
2023-02-06T20:15:32.069Z,-0.68
2023-02-06T20:17:06.254Z,-0.67
2023-02-06T20:18:39.659Z,-0.70
2023-02-06T20:20:14.092Z,-0.74
2023-02-06T20:21:55.999Z,-0.80
2023-02-06T20:23:28.207Z,-0.88
2023-02-06T20:25:01.594Z,-0.90
2023-02-06T20:26:37.787Z,-1.02
2023-02-06T20:28:10.921Z,-1.08
2023-02-06T20:29:45.995Z,-1.04
2023-02-06T20:31:19.806Z,-1.08
2023-02-06T20:32:53.398Z,-1.08
2023-02-06T20:34:27.332Z,-1.05
2023-02-06T20:36:05.499Z,-1.02
2023-02-06T20:37:38.832Z,-0.98
2023-02-06T20:39:14.587Z,-0.94
2023-02-06T20:40:51.568Z,-1.00
2023-02-06T20:42:27.432Z,-0.97
2023-02-06T20:44:02.239Z,-1.04
2023-02-06T20:45:35.568Z,-0.96
2023-02-06T20:47:08.719Z,-0.96
2023-02-06T20:48:42.067Z,-0.98
2023-02-06T20:50:15.762Z,-1.02
2023-02-06T20:51:50.115Z,-0.95
2023-02-06T20:53:23.254Z,-0.93
2023-02-06T20:54:56.528Z,-0.90
2023-02-06T20:56:30.567Z,-0.89
2023-02-06T20:58:06.346Z,-0.86
2023-02-06T20:59:39.742Z,-0.85
2023-02-06T21:01:15.057Z,-0.87
2023-02-06T21:02:48.942Z,-0.89
2023-02-06T21:04:22.430Z,-0.92
2023-02-06T21:06:00.717Z,-0.97
2023-02-06T21:07:34.707Z,-0.98